createdAt,value
2022-10-10T00:02:11.771Z,6.70
2022-10-10T00:04:33.237Z,7.00
2022-10-10T00:06:54.723Z,7.53
2022-10-10T00:09:16.192Z,6.73
2022-10-10T00:11:37.680Z,7.47
2022-10-10T00:13:59.330Z,8.50
2022-10-10T00:16:21.177Z,5.83
2022-10-10T00:18:43.188Z,6.80
2022-10-10T00:21:05.015Z,5.43
2022-10-10T00:23:26.609Z,5.90
2022-10-10T00:25:49.617Z,6.77
2022-10-10T00:28:12.454Z,5.03
2022-10-10T00:30:34.010Z,6.83
2022-10-10T00:32:55.501Z,6.50
2022-10-10T00:35:17.183Z,8.60
2022-10-10T00:37:38.780Z,5.37
2022-10-10T00:40:00.276Z,6.63
2022-10-10T00:42:21.761Z,9.30
2022-10-10T00:44:45.587Z,5.50
2022-10-10T00:47:07.481Z,8.37
2022-10-10T00:49:29.949Z,3.70
2022-10-10T00:51:54.712Z,5.80
2022-10-10T00:54:19.785Z,6.10
2022-10-10T00:56:55.524Z,7.90
2022-10-10T00:59:18.730Z,6.70
2022-10-10T01:01:41.541Z,7.60
2022-10-10T01:04:03.906Z,8.47
2022-10-10T01:06:25.495Z,9.17
2022-10-10T01:08:47.059Z,8.53
2022-10-10T01:11:38.098Z,7.97
2022-10-10T01:14:02.587Z,6.90
2022-10-10T01:16:42.322Z,5.10
2022-10-10T01:19:19.110Z,4.37
2022-10-10T01:22:01.509Z,4.60
2022-10-10T01:24:44.265Z,6.07
2022-10-10T01:27:05.722Z,4.87
2022-10-10T01:29:33.101Z,6.27
2022-10-10T01:31:56.737Z,4.80
2022-10-10T01:34:27.277Z,5.70
2022-10-10T01:37:10.391Z,3.80
2022-10-10T01:39:38.163Z,6.37
2022-10-10T01:42:10.343Z,5.23
2022-10-10T01:44:31.880Z,5.63
2022-10-10T01:46:53.338Z,5.60
2022-10-10T01:49:15.008Z,5.10
2022-10-10T01:51:54.031Z,7.70
2022-10-10T01:54:36.278Z,5.70
2022-10-10T01:57:38.855Z,6.17
2022-10-10T02:00:07.543Z,7.07
2022-10-10T02:02:50.638Z,5.93
2022-10-10T02:05:24.174Z,6.57
2022-10-10T02:08:06.448Z,6.80
2022-10-10T02:10:32.067Z,5.63
2022-10-10T02:12:55.817Z,4.20
2022-10-10T02:15:21.525Z,6.20
2022-10-10T02:17:46.631Z,4.73
2022-10-10T02:20:10.373Z,8.57
2022-10-10T02:22:32.848Z,5.47
2022-10-10T02:24:55.186Z,4.63
2022-10-10T02:27:25.845Z,4.83
2022-10-10T02:29:49.636Z,5.87
2022-10-10T02:32:32.630Z,5.50
2022-10-10T02:34:57.680Z,7.40
2022-10-10T02:37:19.727Z,4.50
2022-10-10T02:39:44.919Z,5.63
2022-10-10T02:42:08.260Z,5.03
2022-10-10T02:44:31.045Z,5.90
2022-10-10T02:46:52.910Z,3.77
2022-10-10T02:49:14.470Z,6.20
2022-10-10T02:51:36.046Z,5.73
2022-10-10T02:53:57.647Z,5.17
2022-10-10T02:56:19.103Z,5.50
2022-10-10T02:58:40.560Z,5.03
2022-10-10T03:01:02.088Z,5.60
2022-10-10T03:03:23.676Z,4.77
2022-10-10T03:05:46.950Z,6.43
2022-10-10T03:08:11.572Z,4.77
2022-10-10T03:10:33.707Z,6.90
2022-10-10T03:12:55.178Z,4.93
2022-10-10T03:15:16.794Z,18.60
2022-10-10T03:17:38.350Z,11.17
2022-10-10T03:19:59.890Z,6.67
2022-10-10T03:22:21.489Z,5.43
2022-10-10T03:24:43.022Z,5.07
2022-10-10T03:27:04.489Z,5.80
2022-10-10T03:29:26.088Z,7.07
2022-10-10T03:31:47.592Z,4.80
2022-10-10T03:34:09.898Z,6.20
2022-10-10T03:36:31.400Z,13.73
2022-10-10T03:38:53.037Z,4.67
2022-10-10T03:41:14.742Z,6.73
2022-10-10T03:43:36.241Z,8.80
2022-10-10T03:45:57.717Z,9.27
2022-10-10T03:48:19.234Z,11.80
2022-10-10T03:50:40.698Z,9.03
2022-10-10T03:53:02.272Z,8.90
2022-10-10T03:55:23.840Z,8.33
2022-10-10T03:57:45.354Z,6.87
2022-10-10T04:00:07.436Z,4.57
2022-10-10T04:02:28.872Z,6.00
2022-10-10T04:04:50.448Z,4.87
2022-10-10T04:07:11.904Z,9.13
2022-10-10T04:09:33.392Z,7.73
2022-10-10T04:11:54.849Z,9.07
2022-10-10T04:14:16.334Z,8.33
2022-10-10T04:16:37.786Z,7.90
2022-10-10T04:18:59.269Z,9.30
2022-10-10T04:21:20.757Z,6.13
2022-10-10T04:23:42.294Z,7.10
2022-10-10T04:26:03.804Z,8.70
2022-10-10T04:28:25.414Z,8.30
2022-10-10T04:30:47.038Z,11.17
2022-10-10T04:33:09.007Z,8.00
2022-10-10T04:35:30.475Z,8.13
2022-10-10T04:37:52.418Z,6.93
2022-10-10T04:40:13.933Z,7.93
2022-10-10T04:42:35.395Z,9.67
2022-10-10T04:44:56.920Z,8.97
2022-10-10T04:47:18.383Z,6.93
2022-10-10T04:49:42.005Z,7.60
2022-10-10T04:52:03.504Z,10.57
2022-10-10T04:54:24.981Z,9.47
2022-10-10T04:56:46.501Z,11.67
2022-10-10T04:59:09.371Z,7.03
2022-10-10T05:01:31.014Z,6.50
2022-10-10T05:03:53.882Z,10.43
2022-10-10T05:06:15.337Z,7.37
2022-10-10T05:08:36.855Z,7.90
2022-10-10T05:10:58.332Z,5.10
2022-10-10T05:13:19.941Z,5.40
2022-10-10T05:15:41.701Z,6.37
2022-10-10T05:18:04.467Z,7.70
2022-10-10T05:20:25.950Z,5.23
2022-10-10T05:22:47.511Z,7.83
2022-10-10T05:25:09.152Z,7.17
2022-10-10T05:27:30.638Z,9.63
2022-10-10T05:29:52.718Z,4.20
2022-10-10T05:32:14.150Z,7.17
2022-10-10T05:34:35.696Z,5.90
2022-10-10T05:36:58.035Z,10.97
2022-10-10T05:39:19.504Z,5.73
2022-10-10T05:41:41.360Z,4.70
2022-10-10T05:44:02.827Z,7.20
2022-10-10T05:46:26.730Z,6.23
2022-10-10T05:48:48.211Z,6.57
2022-10-10T05:51:09.950Z,5.80
2022-10-10T05:53:31.481Z,4.87
2022-10-10T05:55:53.692Z,6.33
2022-10-10T05:58:15.387Z,31.70
2022-10-10T06:00:36.860Z,10.00
2022-10-10T06:02:58.482Z,10.83
2022-10-10T06:05:20.218Z,6.67
2022-10-10T06:08:03.514Z,8.93
2022-10-10T06:10:23.200Z,9.23
2022-10-10T06:12:44.726Z,7.70
2022-10-10T06:15:07.052Z,8.33
2022-10-10T06:17:28.496Z,7.53
2022-10-10T06:19:49.973Z,9.63
2022-10-10T06:22:11.425Z,9.37
2022-10-10T06:24:32.900Z,7.07
2022-10-10T06:26:54.375Z,9.27
2022-10-10T06:29:15.882Z,9.87
2022-10-10T06:31:39.599Z,7.53
2022-10-10T06:34:01.132Z,11.57
2022-10-10T06:36:22.592Z,5.60
2022-10-10T06:38:46.077Z,8.30
2022-10-10T06:41:08.216Z,7.57
2022-10-10T06:43:29.739Z,7.77
2022-10-10T06:45:51.573Z,4.83
2022-10-10T06:48:14.497Z,5.50
2022-10-10T06:50:36.660Z,5.70
2022-10-10T06:52:58.115Z,11.00
2022-10-10T06:55:19.617Z,6.73
2022-10-10T06:57:41.079Z,6.40
2022-10-10T07:00:04.046Z,14.53
2022-10-10T07:02:25.572Z,16.30
2022-10-10T07:04:47.055Z,10.30
2022-10-10T07:07:08.584Z,9.07
2022-10-10T07:09:30.075Z,9.90
2022-10-10T07:11:51.574Z,4.67
2022-10-10T07:14:14.146Z,6.30
2022-10-10T07:16:35.598Z,4.60
2022-10-10T07:18:57.079Z,6.73
2022-10-10T07:21:18.582Z,5.60
2022-10-10T07:23:40.188Z,5.83
2022-10-10T07:26:06.830Z,8.07
2022-10-10T07:28:29.125Z,3.60
2022-10-10T07:30:50.580Z,3.87
2022-10-10T07:33:13.307Z,7.00
2022-10-10T07:35:34.835Z,5.40
2022-10-10T07:37:56.455Z,5.20
2022-10-10T07:40:17.931Z,8.10
2022-10-10T07:42:39.438Z,12.03
2022-10-10T07:45:00.978Z,14.93
2022-10-10T07:47:22.513Z,10.00
2022-10-10T07:49:43.960Z,6.27
2022-10-10T07:52:05.769Z,7.13
2022-10-10T07:54:27.398Z,6.77
2022-10-10T07:56:48.884Z,5.00
2022-10-10T07:59:10.419Z,5.93
2022-10-10T08:01:31.925Z,5.50
2022-10-10T08:03:55.998Z,5.23
2022-10-10T08:06:18.163Z,5.07
2022-10-10T08:08:49.973Z,6.90
2022-10-10T08:11:12.556Z,5.53
2022-10-10T08:13:35.512Z,7.10
2022-10-10T08:15:57.007Z,6.83
2022-10-10T08:18:18.699Z,4.37
2022-10-10T08:20:40.154Z,7.87
2022-10-10T08:23:01.637Z,5.33
2022-10-10T08:25:23.329Z,5.27
2022-10-10T08:27:45.323Z,5.97
2022-10-10T08:30:07.100Z,4.43
2022-10-10T08:32:28.568Z,5.43
2022-10-10T08:34:50.621Z,6.20
2022-10-10T08:37:12.107Z,5.13
2022-10-10T08:39:33.634Z,5.70
2022-10-10T08:41:56.668Z,6.07
2022-10-10T08:44:42.679Z,5.23
2022-10-10T08:47:09.995Z,4.57
2022-10-10T08:49:36.503Z,7.27
2022-10-10T08:52:25.558Z,4.00
2022-10-10T08:54:48.417Z,5.80
2022-10-10T08:57:33.440Z,8.00
2022-10-10T08:59:59.758Z,7.43
2022-10-10T09:02:50.157Z,6.33
2022-10-10T09:05:17.751Z,5.93
2022-10-10T09:07:54.501Z,6.37
2022-10-10T09:10:32.309Z,5.03
2022-10-10T09:13:08.502Z,6.30
2022-10-10T09:15:43.229Z,7.97
2022-10-10T09:18:19.119Z,8.23
2022-10-10T09:20:52.515Z,8.07
2022-10-10T09:23:26.499Z,7.63
2022-10-10T09:26:10.835Z,6.13
2022-10-10T09:28:44.516Z,4.80
2022-10-10T09:31:15.111Z,3.27
2022-10-10T09:33:45.208Z,6.50
2022-10-10T09:36:13.894Z,4.00
2022-10-10T09:38:50.005Z,6.77
2022-10-10T09:41:23.242Z,5.70
2022-10-10T09:43:44.713Z,9.83
2022-10-10T09:46:06.600Z,6.22
2022-10-10T09:48:33.501Z,3.63
2022-10-10T09:50:55.164Z,7.65
2022-10-10T09:53:17.166Z,5.70
2022-10-10T09:55:39.433Z,6.18
2022-10-10T09:58:24.569Z,3.45
2022-10-10T10:00:46.188Z,5.85
2022-10-10T10:03:13.045Z,4.38
2022-10-10T10:05:35.284Z,4.97
2022-10-10T10:07:58.343Z,6.32
2022-10-10T10:10:26.631Z,7.05
2022-10-10T10:12:48.401Z,7.90
2022-10-10T10:15:21.844Z,7.40
2022-10-10T10:17:43.473Z,5.80
2022-10-10T10:20:31.536Z,4.50
2022-10-10T10:25:37.571Z,4.68
2022-10-10T10:28:25.529Z,4.57
2022-10-10T10:30:48.611Z,7.72
2022-10-10T10:33:27.817Z,3.88
2022-10-10T10:36:07.534Z,4.55
2022-10-10T10:39:06.729Z,9.75
2022-10-10T10:41:48.100Z,10.80
2022-10-10T10:44:21.707Z,6.72
2022-10-10T10:46:58.074Z,6.88
2022-10-10T10:49:30.119Z,5.90
2022-10-10T10:52:06.558Z,6.80
2022-10-10T10:54:55.361Z,7.57
2022-10-10T10:58:04.583Z,7.35
2022-10-10T11:01:20.889Z,4.90
2022-10-10T11:05:17.912Z,5.90
2022-10-10T11:06:39.582Z,10.73
2022-10-10T11:09:49.232Z,6.78
2022-10-10T11:12:22.627Z,13.63
2022-10-10T11:14:54.034Z,8.40
2022-10-10T11:17:24.411Z,6.20
2022-10-10T11:20:23.268Z,12.02
2022-10-10T11:23:12.616Z,6.53
2022-10-10T11:25:43.073Z,10.15
2022-10-10T11:28:11.065Z,6.60
2022-10-10T11:30:39.279Z,8.52
2022-10-10T11:33:11.027Z,10.63
2022-10-10T11:35:55.588Z,11.55
2022-10-10T11:38:27.464Z,5.55
2022-10-10T11:41:13.977Z,9.48
2022-10-10T11:44:00.964Z,6.15
2022-10-10T11:46:46.877Z,8.48
2022-10-10T11:49:17.556Z,8.23
2022-10-10T11:52:14.960Z,8.25
2022-10-10T11:54:54.199Z,6.65
2022-10-10T11:57:27.521Z,9.23
2022-10-10T11:59:53.416Z,7.60
2022-10-10T12:02:23.268Z,8.65
2022-10-10T12:04:47.669Z,11.43
2022-10-10T12:07:17.902Z,9.10
2022-10-10T12:09:45.843Z,3.97
2022-10-10T12:12:34.163Z,10.82
2022-10-10T12:15:00.620Z,9.85
2022-10-10T12:17:32.439Z,9.35
2022-10-10T12:19:54.280Z,7.72
2022-10-10T12:22:33.703Z,9.80
2022-10-10T12:25:22.756Z,8.55
2022-10-10T12:27:46.744Z,9.30
2022-10-10T12:30:08.191Z,9.48
2022-10-10T12:32:43.968Z,6.75
2022-10-10T12:35:35.486Z,6.95
2022-10-10T12:38:06.083Z,11.40
2022-10-10T12:40:27.698Z,5.57
2022-10-10T12:42:49.129Z,7.53
2022-10-10T12:45:28.939Z,9.30
2022-10-10T12:48:05.093Z,6.03
2022-10-10T12:50:29.084Z,7.78
2022-10-10T12:52:57.653Z,9.30
2022-10-10T12:55:32.334Z,8.10
2022-10-10T12:57:57.479Z,13.90
2022-10-10T13:00:27.962Z,5.72
2022-10-10T13:02:56.280Z,7.70
2022-10-10T13:05:35.074Z,10.80
2022-10-10T13:08:00.576Z,12.35
2022-10-10T13:10:25.260Z,6.95
2022-10-10T13:12:59.258Z,8.73
2022-10-10T13:15:21.309Z,8.35
2022-10-10T13:17:42.804Z,11.00
2022-10-10T13:20:05.761Z,6.22
2022-10-10T13:22:30.144Z,11.23
2022-10-10T13:24:52.395Z,9.18
2022-10-10T13:27:35.284Z,14.57
2022-10-10T13:29:57.165Z,12.18
2022-10-10T13:32:23.021Z,9.15
2022-10-10T13:34:52.298Z,9.00
2022-10-10T13:37:16.316Z,12.93
2022-10-10T13:39:38.964Z,8.80
2022-10-10T13:42:01.062Z,11.55
2022-10-10T13:44:31.911Z,9.15
2022-10-10T13:46:53.488Z,8.75
2022-10-10T13:49:30.439Z,10.93
2022-10-10T13:52:02.737Z,9.15
2022-10-10T13:54:37.359Z,9.20
2022-10-10T13:57:02.530Z,8.00
2022-10-10T13:59:24.780Z,10.60
2022-10-10T14:01:48.949Z,17.05
2022-10-10T14:04:13.453Z,10.48
2022-10-10T14:06:35.347Z,12.07
2022-10-10T14:09:06.492Z,9.32
2022-10-10T14:11:30.320Z,11.55
2022-10-10T14:13:57.681Z,10.68
2022-10-10T14:16:19.102Z,8.30
2022-10-10T14:18:40.617Z,10.75
2022-10-10T14:21:02.248Z,12.70
2022-10-10T14:23:23.916Z,13.30
2022-10-10T14:25:48.064Z,9.20
2022-10-10T14:28:20.669Z,7.20
2022-10-10T14:30:42.237Z,11.20
2022-10-10T14:33:10.793Z,10.13
2022-10-10T14:35:32.495Z,8.82
2022-10-10T14:37:54.004Z,8.93
2022-10-10T14:40:21.929Z,9.88
2022-10-10T14:42:43.397Z,7.60
2022-10-10T14:45:05.189Z,9.48
2022-10-10T14:47:26.687Z,9.38
2022-10-10T14:49:48.509Z,12.15
2022-10-10T14:52:10.107Z,12.77
2022-10-10T14:54:31.570Z,7.95
2022-10-10T14:57:07.580Z,9.20
2022-10-10T14:59:48.041Z,10.55
2022-10-10T15:02:11.074Z,12.00
2022-10-10T15:04:32.530Z,14.07
2022-10-10T15:07:12.386Z,11.48
2022-10-10T15:09:42.910Z,7.65
2022-10-10T15:12:06.743Z,11.23
2022-10-10T15:14:28.171Z,8.23
2022-10-10T15:16:49.964Z,8.02
2022-10-10T15:19:11.443Z,9.18
2022-10-10T15:21:32.912Z,10.90
2022-10-10T15:23:55.239Z,11.68
2022-10-10T15:26:16.693Z,10.10
2022-10-10T15:28:38.168Z,10.30
2022-10-10T15:31:00.653Z,9.38
2022-10-10T15:33:22.389Z,9.57
2022-10-10T15:36:07.905Z,9.93
2022-10-10T15:38:25.719Z,8.15
2022-10-10T15:40:56.799Z,7.80
2022-10-10T15:43:18.247Z,8.48
2022-10-10T15:45:55.572Z,6.20
2022-10-10T15:48:17.213Z,9.20
2022-10-10T15:50:42.330Z,11.45
2022-10-10T15:53:03.775Z,8.75
2022-10-10T15:55:25.255Z,11.55
2022-10-10T15:57:46.751Z,7.38
2022-10-10T16:00:08.623Z,7.15
2022-10-10T16:02:30.110Z,5.60
2022-10-10T16:04:51.605Z,8.35
2022-10-10T16:07:28.310Z,6.63
2022-10-10T16:09:51.483Z,6.78
2022-10-10T16:12:12.939Z,9.52
2022-10-10T16:14:34.472Z,10.98
2022-10-10T16:16:59.392Z,7.18
2022-10-10T16:19:20.927Z,8.73
2022-10-10T16:21:42.585Z,8.32
2022-10-10T16:24:04.211Z,9.27
2022-10-10T16:26:29.301Z,8.75
2022-10-10T16:28:50.818Z,6.10
2022-10-10T16:31:14.896Z,8.20
2022-10-10T16:33:38.078Z,5.07
2022-10-10T16:36:00.433Z,5.25
2022-10-10T16:38:21.999Z,7.65
2022-10-10T16:40:43.528Z,4.38
2022-10-10T16:43:05.116Z,10.05
2022-10-10T16:45:26.592Z,11.70
2022-10-10T16:47:48.105Z,5.80
2022-10-10T16:50:09.891Z,9.25
2022-10-10T16:52:33.064Z,10.13
2022-10-10T16:54:54.556Z,12.80
2022-10-10T16:57:16.346Z,15.98
2022-10-10T16:59:37.873Z,17.40
2022-10-10T17:01:59.365Z,13.70
2022-10-10T17:04:21.539Z,13.93
2022-10-10T17:06:43.324Z,12.20
2022-10-10T17:09:07.348Z,14.50
2022-10-10T17:11:28.870Z,10.07
2022-10-10T17:13:51.241Z,8.63
2022-10-10T17:16:59.970Z,12.17
2022-10-10T17:19:04.361Z,10.43
2022-10-10T17:21:25.918Z,9.07
2022-10-10T17:23:48.335Z,11.13
2022-10-10T17:26:13.030Z,12.47
2022-10-10T17:28:35.132Z,12.57
2022-10-10T17:30:56.644Z,9.50
2022-10-10T17:33:19.418Z,11.73
2022-10-10T17:35:50.880Z,12.60
2022-10-10T17:38:34.932Z,10.43
2022-10-10T17:40:58.775Z,8.23
2022-10-10T17:43:20.309Z,12.90
2022-10-10T17:45:41.792Z,11.63
2022-10-10T17:48:09.133Z,9.80
2022-10-10T17:50:30.620Z,11.83
2022-10-10T17:52:53.371Z,10.37
2022-10-10T17:55:14.928Z,10.27
2022-10-10T17:57:36.562Z,9.60
2022-10-10T17:59:58.028Z,15.20
2022-10-10T18:02:19.711Z,14.37
2022-10-10T18:04:41.675Z,9.97
2022-10-10T18:07:03.326Z,19.53
2022-10-10T18:09:24.926Z,9.60
2022-10-10T18:11:46.506Z,10.00
2022-10-10T18:14:08.016Z,7.57
2022-10-10T18:16:34.065Z,11.43
2022-10-10T18:18:55.847Z,14.97
2022-10-10T18:21:17.959Z,19.90
2022-10-10T18:23:40.269Z,41.33
2022-10-10T18:26:03.577Z,64.07
2022-10-10T18:28:25.062Z,38.37
2022-10-10T18:30:46.596Z,15.37
2022-10-10T18:33:08.108Z,18.07
2022-10-10T18:35:29.619Z,19.43
2022-10-10T18:37:51.130Z,17.97
2022-10-10T18:40:13.430Z,16.00
2022-10-10T18:42:36.030Z,18.23
2022-10-10T18:44:57.525Z,17.83
2022-10-10T18:47:21.516Z,14.70
2022-10-10T18:49:43.087Z,11.97
2022-10-10T18:52:05.102Z,15.57
2022-10-10T18:54:27.974Z,16.27
2022-10-10T18:56:49.478Z,12.67
2022-10-10T18:59:16.883Z,14.00
2022-10-10T19:01:40.327Z,18.60
2022-10-10T19:04:04.132Z,14.77
2022-10-10T19:06:26.216Z,11.30
2022-10-10T19:08:48.068Z,12.00
2022-10-10T19:11:22.302Z,14.37
2022-10-10T19:13:43.815Z,14.90
2022-10-10T19:16:07.288Z,10.77
2022-10-10T19:18:28.780Z,12.70
2022-10-10T19:20:50.311Z,13.33
2022-10-10T19:23:14.955Z,11.20
2022-10-10T19:25:44.221Z,16.47
2022-10-10T19:28:07.015Z,14.33
2022-10-10T19:30:28.548Z,12.13
2022-10-10T19:32:50.111Z,15.27
2022-10-10T19:35:11.596Z,11.67
2022-10-10T19:37:33.067Z,13.57
2022-10-10T19:39:54.707Z,16.40
2022-10-10T19:42:16.162Z,11.57
2022-10-10T19:44:37.703Z,11.13
2022-10-10T19:47:00.480Z,14.43
2022-10-10T19:49:23.160Z,13.67
2022-10-10T19:51:44.667Z,15.17
2022-10-10T19:54:06.184Z,10.33
2022-10-10T19:56:27.881Z,12.50
2022-10-10T19:58:49.417Z,16.43
2022-10-10T20:01:13.669Z,14.77
2022-10-10T20:03:35.282Z,16.57
2022-10-10T20:06:00.651Z,15.80
2022-10-10T20:08:22.316Z,14.10
2022-10-10T20:10:44.396Z,14.60
2022-10-10T20:13:06.006Z,13.40
2022-10-10T20:15:27.472Z,15.43
2022-10-10T20:17:49.015Z,14.90
2022-10-10T20:20:10.915Z,15.27
2022-10-10T20:22:33.379Z,12.47
2022-10-10T20:24:54.865Z,11.83
2022-10-10T20:27:16.401Z,17.30
2022-10-10T20:29:37.926Z,14.23
2022-10-10T20:31:59.361Z,10.73
2022-10-10T20:34:20.832Z,12.50
2022-10-10T20:36:42.400Z,17.83
2022-10-10T20:39:07.954Z,15.87
2022-10-10T20:41:32.393Z,18.67
2022-10-10T20:43:58.485Z,12.60
2022-10-10T20:46:19.935Z,13.33
2022-10-10T20:48:41.662Z,14.23
2022-10-10T20:51:14.018Z,13.33
2022-10-10T20:53:36.527Z,20.87
2022-10-10T20:55:57.978Z,11.97
2022-10-10T20:58:19.495Z,15.80
2022-10-10T21:00:44.683Z,20.77
2022-10-10T21:03:06.232Z,14.23
2022-10-10T21:05:27.689Z,13.70
2022-10-10T21:07:49.323Z,12.33
2022-10-10T21:10:10.768Z,16.27
2022-10-10T21:12:32.267Z,11.97
2022-10-10T21:14:53.816Z,14.53
2022-10-10T21:17:15.277Z,12.37
2022-10-10T21:19:36.729Z,14.47
2022-10-10T21:21:58.255Z,16.40
2022-10-10T21:24:19.701Z,11.20
2022-10-10T21:26:42.116Z,12.27
2022-10-10T21:29:04.314Z,12.17
2022-10-10T21:31:32.349Z,11.70
2022-10-10T21:33:54.602Z,15.37
2022-10-10T21:36:18.170Z,12.13
2022-10-10T21:38:39.721Z,14.90
2022-10-10T21:41:09.556Z,12.77
2022-10-10T21:43:31.011Z,13.40
2022-10-10T21:45:52.464Z,13.23
2022-10-10T21:48:14.030Z,13.97
2022-10-10T21:50:36.081Z,10.53
2022-10-10T21:52:57.737Z,12.80
2022-10-10T21:55:19.376Z,12.30
2022-10-10T21:57:40.854Z,18.60
2022-10-10T22:00:02.424Z,12.00
2022-10-10T22:02:23.962Z,12.00
2022-10-10T22:04:50.405Z,15.17
2022-10-10T22:07:11.944Z,13.53
2022-10-10T22:09:33.391Z,16.67
2022-10-10T22:11:55.143Z,10.27
2022-10-10T22:14:16.699Z,11.83
2022-10-10T22:16:38.212Z,15.53
2022-10-10T22:19:00.015Z,14.33
2022-10-10T22:21:21.759Z,14.87
2022-10-10T22:23:44.615Z,15.47
2022-10-10T22:26:12.566Z,10.93
2022-10-10T22:28:34.080Z,14.93
2022-10-10T22:30:55.581Z,18.50
2022-10-10T22:33:17.092Z,20.63
2022-10-10T22:35:38.611Z,15.27
2022-10-10T22:38:01.077Z,18.57
2022-10-10T22:40:23.378Z,17.17
2022-10-10T22:42:44.824Z,14.43
2022-10-10T22:45:06.757Z,14.57
2022-10-10T22:47:29.197Z,16.13
2022-10-10T22:49:50.654Z,12.27
2022-10-10T22:52:12.148Z,12.80
2022-10-10T22:54:33.857Z,16.80
2022-10-10T22:56:55.411Z,13.77
2022-10-10T22:59:16.888Z,11.27
2022-10-10T23:01:38.366Z,12.57
2022-10-10T23:04:03.353Z,12.43
2022-10-10T23:06:25.033Z,11.67
2022-10-10T23:08:46.514Z,11.73
2022-10-10T23:11:08.006Z,13.60
2022-10-10T23:13:30.359Z,12.33
2022-10-10T23:15:51.904Z,12.30
2022-10-10T23:18:13.392Z,13.60
2022-10-10T23:20:35.416Z,10.30
2022-10-10T23:22:56.958Z,13.80
2022-10-10T23:25:18.450Z,10.67
2022-10-10T23:27:39.892Z,14.80
2022-10-10T23:30:01.402Z,12.93
2022-10-10T23:32:25.071Z,14.97
2022-10-10T23:34:46.587Z,15.50
2022-10-10T23:37:08.305Z,19.23
2022-10-10T23:39:29.754Z,11.63
2022-10-10T23:41:51.269Z,14.43
2022-10-10T23:44:12.773Z,13.20
2022-10-10T23:46:34.306Z,7.93
2022-10-10T23:48:55.758Z,15.60
2022-10-10T23:51:17.517Z,15.37
2022-10-10T23:53:39.044Z,12.00
2022-10-10T23:56:00.582Z,13.33
2022-10-10T23:58:22.405Z,13.07
